Time;durP1;ratioP1;P1;durP2;ratioP2;P2;SDS_P1;SDS_P2;PMS_P1;PMS_P2;Temp;Humidity;BMP_temperature;BMP_pressure;BME280_temperature;BME280_humidity;BME280_pressure;Samples;Min_cycle;Max_cycle;Signal;HPM_P1;HPM_P2
2021/12/16 00:03:28;;;;;;;60.08;37.17;;;7.50;99.90;;;;;;5094167;28;20048;-75
2021/12/16 00:06:46;;;;;;;55.88;36.45;;;7.50;99.90;;;;;;5093662;28;20051;-75
2021/12/16 00:08:22;;;;;;;60.78;38.15;;;7.50;99.90;;;;;;5082799;28;20052;-75
2021/12/16 00:11:02;;;;;;;59.03;38.63;;;7.50;99.90;;;;;;5108769;28;20040;-75
2021/12/16 00:30:06;;;;;;;74.18;43.00;;;7.60;99.90;;;;;;5081776;28;20078;-71
2021/12/16 00:34:58;;;;;;;67.53;41.17;;;7.60;99.90;;;;;;5113102;28;20555;-74
2021/12/16 00:37:26;;;;;;;68.60;41.70;;;7.70;99.90;;;;;;5113551;28;20052;-75
2021/12/16 00:39:52;;;;;;;70.45;42.92;;;7.70;99.90;;;;;;5095672;28;20388;-75
2021/12/16 00:42:33;;;;;;;73.05;42.55;;;7.70;99.90;;;;;;5096080;28;20047;-75
2021/12/16 00:47:31;;;;;;;71.93;43.30;;;7.80;99.90;;;;;;5107528;28;20056;-75
2021/12/16 00:50:17;;;;;;;70.22;42.58;;;7.80;99.90;;;;;;5095446;28;20075;-74
2021/12/16 00:56:01;;;;;;;73.22;43.50;;;7.90;99.90;;;;;;5104651;28;20055;-75
2021/12/16 00:58:25;;;;;;;70.03;42.35;;;7.90;99.90;;;;;;5109009;28;20478;-75
2021/12/16 01:01:11;;;;;;;68.80;41.75;;;7.90;99.90;;;;;;5103872;28;20431;-76
2021/12/16 01:03:57;;;;;;;68.88;43.20;;;8.00;99.90;;;;;;5092998;28;20044;-75
2021/12/16 01:36:42;;;;;;;65.30;41.95;;;8.00;99.90;;;;;;5071904;28;20416;-75
2021/12/16 01:49:59;;;;;;;66.78;41.97;;;8.00;99.90;;;;;;5102643;28;20048;-75
2021/12/16 01:55:29;;;;;;;67.55;41.42;;;8.00;99.90;;;;;;5104022;28;20484;-73
2021/12/16 01:58:10;;;;;;;65.27;40.30;;;8.00;99.90;;;;;;5092355;28;20040;-75
2021/12/16 02:04:16;;;;;;;61.33;39.78;;;7.90;99.90;;;;;;5112781;28;20119;-75
2021/12/16 02:09:30;;;;;;;64.38;40.75;;;7.90;99.90;;;;;;5078085;28;20281;-74
2021/12/16 02:36:43;;;;;;;65.32;39.95;;;8.00;99.90;;;;;;5095155;28;20044;-75
2021/12/16 02:39:21;;;;;;;67.95;41.47;;;8.00;99.90;;;;;;5108669;28;20496;-74
2021/12/16 02:41:50;;;;;;;64.53;40.83;;;8.00;99.90;;;;;;5116188;28;20127;-75
2021/12/16 02:49:41;;;;;;;67.10;41.20;;;8.10;99.90;;;;;;5112465;28;20055;-75
2021/12/16 02:52:07;;;;;;;71.57;40.35;;;8.10;99.90;;;;;;5115556;27;20051;-72
2021/12/16 02:54:33;;;;;;;68.82;40.45;;;8.10;99.90;;;;;;5113662;27;20046;-75
2021/12/16 02:56:59;;;;;;;71.70;42.97;;;8.10;99.90;;;;;;5115696;28;20118;-75
2021/12/16 02:59:28;;;;;;;70.97;42.83;;;8.20;99.90;;;;;;5100304;28;20496;-75
2021/12/16 03:01:57;;;;;;;69.78;41.63;;;8.10;99.90;;;;;;5095156;28;20102;-75
2021/12/16 03:04:26;;;;;;;71.75;42.05;;;8.20;99.90;;;;;;5106880;28;20545;-74
2021/12/16 03:06:57;;;;;;;76.45;40.92;;;8.20;99.90;;;;;;5115549;28;20075;-75
2021/12/16 03:15:17;;;;;;;70.95;41.45;;;8.20;99.90;;;;;;5098629;28;20097;-75
2021/12/16 03:17:56;;;;;;;74.00;41.28;;;8.20;99.90;;;;;;5093885;28;20047;-74
2021/12/16 03:20:48;;;;;;;70.75;40.30;;;8.20;99.90;;;;;;5112946;28;20086;-74
2021/12/16 03:25:58;;;;;;;71.95;40.33;;;8.20;99.90;;;;;;5094183;28;20055;-75
2021/12/16 03:28:56;;;;;;;70.00;41.70;;;8.10;99.90;;;;;;5094702;28;20450;-74
2021/12/16 03:36:28;;;;;;;72.22;42.08;;;8.20;99.90;;;;;;5114310;28;20051;-74
2021/12/16 03:39:02;;;;;;;74.95;40.88;;;8.20;99.90;;;;;;5111225;28;20051;-74
2021/12/16 03:41:29;;;;;;;73.80;41.15;;;8.20;99.90;;;;;;5091188;28;20048;-74
2021/12/16 03:43:58;;;;;;;72.40;41.05;;;8.20;99.90;;;;;;5096720;28;20071;-75
2021/12/16 03:46:31;;;;;;;72.25;41.88;;;8.20;99.90;;;;;;5114103;28;20044;-74
2021/12/16 03:49:09;;;;;;;72.68;40.30;;;8.20;99.90;;;;;;5112076;28;20404;-75
2021/12/16 03:51:50;;;;;;;76.18;41.20;;;8.20;99.90;;;;;;5093748;28;20035;-74
2021/12/16 03:54:21;;;;;;;78.15;40.97;;;8.20;99.90;;;;;;5092710;28;20485;-72
2021/12/16 03:56:48;;;;;;;75.53;40.53;;;8.20;99.90;;;;;;5092207;28;20048;-75
2021/12/16 03:59:19;;;;;;;76.90;42.75;;;8.20;99.90;;;;;;5097409;28;20460;-75
2021/12/16 04:01:45;;;;;;;75.55;41.15;;;8.20;99.90;;;;;;5114429;28;20081;-75
2021/12/16 04:04:11;;;;;;;76.45;41.70;;;8.20;99.90;;;;;;5101557;28;20044;-75
2021/12/16 04:06:39;;;;;;;73.60;40.75;;;8.20;99.90;;;;;;5093386;28;20039;-74
2021/12/16 04:09:07;;;;;;;79.93;43.17;;;8.20;99.90;;;;;;5104177;28;20043;-75
2021/12/16 04:11:40;;;;;;;75.60;41.30;;;8.20;99.90;;;;;;5091319;28;20044;-75
2021/12/16 04:14:09;;;;;;;75.75;40.90;;;8.20;99.90;;;;;;5103782;28;20108;-75
2021/12/16 04:16:45;;;;;;;75.15;41.00;;;8.20;99.90;;;;;;5113536;28;20408;-75
2021/12/16 04:19:16;;;;;;;76.13;41.47;;;8.20;99.90;;;;;;5103450;28;20108;-75
2021/12/16 04:21:52;;;;;;;70.70;38.70;;;8.30;99.90;;;;;;5111325;28;20047;-75
2021/12/16 04:24:19;;;;;;;75.95;41.00;;;8.30;99.90;;;;;;5103040;28;20078;-72
2021/12/16 04:26:47;;;;;;;74.80;39.63;;;8.30;99.90;;;;;;5091336;28;20052;-75
2021/12/16 04:29:13;;;;;;;72.18;39.60;;;8.30;99.90;;;;;;5102025;28;20054;-75
2021/12/16 04:31:41;;;;;;;71.10;39.00;;;8.30;99.90;;;;;;5097913;28;20051;-75
2021/12/16 04:34:08;;;;;;;78.63;39.55;;;8.30;99.90;;;;;;5093632;28;20048;-75
2021/12/16 04:36:35;;;;;;;81.72;40.72;;;8.30;99.90;;;;;;5092712;28;20473;-75
2021/12/16 04:39:05;;;;;;;77.05;39.10;;;8.30;99.90;;;;;;5099109;28;20109;-75
2021/12/16 04:41:32;;;;;;;75.72;40.30;;;8.30;99.90;;;;;;5101833;28;20051;-74
2021/12/16 04:43:58;;;;;;;80.35;40.72;;;8.30;99.90;;;;;;5085209;28;20051;-75
2021/12/16 04:46:28;;;;;;;78.53;39.78;;;8.30;99.90;;;;;;5099068;28;20048;-74
2021/12/16 04:48:57;;;;;;;78.57;40.10;;;8.30;99.90;;;;;;5073188;28;20061;-75
2021/12/16 04:51:26;;;;;;;78.45;40.03;;;8.30;99.90;;;;;;5109349;28;20043;-74
2021/12/16 04:53:52;;;;;;;80.68;39.80;;;8.30;99.90;;;;;;5113017;28;20078;-75
2021/12/16 04:56:18;;;;;;;77.57;40.83;;;8.40;99.90;;;;;;5097043;28;20143;-76
2021/12/16 04:58:47;;;;;;;81.45;42.33;;;8.30;99.90;;;;;;5083841;28;20509;-76
2021/12/16 05:01:13;;;;;;;83.55;40.03;;;8.30;99.90;;;;;;5104927;28;20067;-76
2021/12/16 05:03:40;;;;;;;80.60;39.88;;;8.40;99.90;;;;;;5112712;28;20083;-76
2021/12/16 05:06:06;;;;;;;83.47;39.80;;;8.40;99.90;;;;;;5099542;28;20051;-76
2021/12/16 05:08:32;;;;;;;79.63;41.05;;;8.40;99.90;;;;;;5092278;28;20051;-75
2021/12/16 05:11:01;;;;;;;79.82;40.90;;;8.40;99.90;;;;;;5104408;28;20400;-76
2021/12/16 05:13:28;;;;;;;77.75;39.03;;;8.40;99.90;;;;;;5103400;28;20079;-76
2021/12/16 05:15:56;;;;;;;78.93;40.10;;;8.40;99.90;;;;;;5094267;28;20052;-75
2021/12/16 05:18:30;;;;;;;81.05;40.75;;;8.40;99.90;;;;;;5092826;28;20048;-75
2021/12/16 05:20:56;;;;;;;74.82;37.72;;;8.40;99.90;;;;;;5093309;28;20059;-75
2021/12/16 05:28:40;;;;;;;81.47;40.85;;;8.40;99.90;;;;;;5089734;28;20048;-75
2021/12/16 05:31:06;;;;;;;82.15;41.00;;;8.40;99.90;;;;;;5072435;28;20184;-76
2021/12/16 05:33:32;;;;;;;82.07;40.58;;;8.40;99.90;;;;;;5071772;28;20051;-75
2021/12/16 05:35:59;;;;;;;83.97;41.78;;;8.40;99.90;;;;;;5072398;28;20237;-76
2021/12/16 05:38:27;;;;;;;79.45;39.55;;;8.40;99.90;;;;;;5072576;28;20133;-75
2021/12/16 05:40:54;;;;;;;79.43;40.25;;;8.40;99.90;;;;;;5072345;28;20056;-75
2021/12/16 05:43:24;;;;;;;84.80;41.33;;;8.40;99.90;;;;;;5072408;28;20045;-75
2021/12/16 05:45:53;;;;;;;80.05;40.25;;;8.40;99.90;;;;;;5072718;28;20413;-75
2021/12/16 05:48:22;;;;;;;79.22;38.85;;;8.50;99.90;;;;;;5072245;28;20045;-75
2021/12/16 05:50:51;;;;;;;74.78;38.85;;;8.40;99.90;;;;;;5071677;28;20063;-75
2021/12/16 05:53:18;;;;;;;77.70;40.58;;;8.40;99.90;;;;;;5072192;28;20052;-75
2021/12/16 05:55:44;;;;;;;80.85;39.72;;;8.50;99.90;;;;;;5082037;28;20489;-75
2021/12/16 05:58:17;;;;;;;76.30;39.00;;;8.50;99.90;;;;;;5092556;28;20097;-76
2021/12/16 06:00:43;;;;;;;80.55;41.65;;;8.50;99.90;;;;;;5091891;28;20044;-75
2021/12/16 06:03:09;;;;;;;79.30;40.38;;;8.50;99.90;;;;;;5092296;28;20123;-75
2021/12/16 06:05:35;;;;;;;76.15;40.00;;;8.50;99.90;;;;;;5092991;28;20145;-75
2021/12/16 06:08:02;;;;;;;81.03;40.97;;;8.50;99.90;;;;;;5096222;28;20051;-75
2021/12/16 06:13:07;;;;;;;80.35;39.60;;;8.50;99.90;;;;;;5096008;28;20131;-75
2021/12/16 06:15:59;;;;;;;77.50;40.13;;;8.50;99.90;;;;;;5095437;28;20052;-74
2021/12/16 06:26:56;;;;;;;71.47;39.13;;;8.50;99.90;;;;;;5093596;28;20058;-75
2021/12/16 06:29:22;;;;;;;67.72;38.17;;;8.50;99.90;;;;;;5094302;28;20048;-76
2021/12/16 06:31:49;;;;;;;69.82;38.53;;;8.50;99.90;;;;;;5095198;28;20047;-76
2021/12/16 06:34:15;;;;;;;72.35;39.95;;;8.50;99.90;;;;;;5095646;28;20431;-76
2021/12/16 06:36:41;;;;;;;73.13;39.13;;;8.50;99.90;;;;;;5094918;28;20052;-75
2021/12/16 06:39:09;;;;;;;71.25;39.53;;;8.50;99.90;;;;;;5095630;28;20089;-75
2021/12/16 06:41:37;;;;;;;71.57;38.50;;;8.50;99.90;;;;;;5094875;28;20079;-73
2021/12/16 06:44:13;;;;;;;67.63;38.53;;;8.60;99.90;;;;;;5076058;28;20493;-76
2021/12/16 06:46:41;;;;;;;69.47;38.90;;;8.50;99.90;;;;;;5074924;28;20508;-75
2021/12/16 06:49:08;;;;;;;66.70;38.83;;;8.50;99.90;;;;;;5075217;28;20054;-76
2021/12/16 06:51:50;;;;;;;66.72;40.00;;;8.50;99.90;;;;;;5074762;28;20099;-72
2021/12/16 06:54:27;;;;;;;69.00;39.40;;;8.40;99.90;;;;;;5075221;28;20098;-76
2021/12/16 06:59:48;;;;;;;67.82;39.17;;;8.50;99.90;;;;;;5074466;28;20057;-75
2021/12/16 07:02:31;;;;;;;62.47;37.05;;;8.50;99.90;;;;;;5075326;28;20106;-76
2021/12/16 07:04:57;;;;;;;65.68;39.40;;;8.50;99.90;;;;;;5074407;28;20060;-76
2021/12/16 07:07:23;;;;;;;70.85;38.47;;;8.50;99.90;;;;;;5074891;28;20048;-76
2021/12/16 07:09:48;;;;;;;67.63;38.92;;;8.50;99.90;;;;;;5074228;28;20084;-75
2021/12/16 07:12:23;;;;;;;63.95;38.53;;;8.50;99.90;;;;;;5074938;28;20047;-76
2021/12/16 07:14:49;;;;;;;65.13;38.47;;;8.50;99.90;;;;;;5079880;28;20119;-75
2021/12/16 07:17:16;;;;;;;66.22;38.55;;;8.60;99.90;;;;;;5094746;28;20171;-76
2021/12/16 07:19:44;;;;;;;69.30;39.65;;;8.50;99.90;;;;;;5094229;28;20047;-76
2021/12/16 07:22:12;;;;;;;63.67;37.80;;;8.60;99.90;;;;;;5094816;28;20109;-76
2021/12/16 07:24:38;;;;;;;62.55;38.85;;;8.50;99.90;;;;;;5093350;28;20050;-72
2021/12/16 07:27:06;;;;;;;65.75;39.42;;;8.50;99.90;;;;;;5073423;28;20052;-76
2021/12/16 07:29:32;;;;;;;64.85;38.33;;;8.50;99.90;;;;;;5086879;28;20055;-76
2021/12/16 07:31:59;;;;;;;64.88;38.95;;;8.50;99.90;;;;;;5094041;28;20051;-75
2021/12/16 07:34:25;;;;;;;60.35;37.88;;;8.50;99.90;;;;;;5094973;28;20047;-75
2021/12/16 07:36:51;;;;;;;64.07;37.63;;;8.50;99.90;;;;;;5093577;28;20044;-75
2021/12/16 07:39:26;;;;;;;60.92;37.85;;;8.50;99.90;;;;;;5086436;28;20052;-76
2021/12/16 07:41:53;;;;;;;61.70;37.15;;;8.50;99.90;;;;;;5073768;28;20127;-75
2021/12/16 07:44:19;;;;;;;64.82;38.33;;;8.50;99.90;;;;;;5074311;28;20076;-76
2021/12/16 07:46:55;;;;;;;62.55;37.42;;;8.50;99.90;;;;;;5073560;28;20063;-75
2021/12/16 07:49:25;;;;;;;66.40;37.05;;;8.50;99.90;;;;;;5074295;28;20044;-76
2021/12/16 07:51:51;;;;;;;68.90;39.15;;;8.50;99.90;;;;;;5073468;28;20133;-75
2021/12/16 07:54:18;;;;;;;67.32;38.95;;;8.40;99.90;;;;;;5074048;28;20041;-76
2021/12/16 07:56:45;;;;;;;64.97;37.78;;;8.40;99.90;;;;;;5073329;28;20052;-75
2021/12/16 07:59:11;;;;;;;65.57;39.25;;;8.40;99.90;;;;;;5073994;28;20058;-75
2021/12/16 08:01:39;;;;;;;68.70;38.45;;;8.30;99.90;;;;;;5093056;28;20119;-76
2021/12/16 08:04:06;;;;;;;67.43;37.95;;;8.30;99.90;;;;;;5093442;28;20046;-76
2021/12/16 08:06:33;;;;;;;67.57;39.03;;;8.30;99.90;;;;;;5093964;28;20055;-76
2021/12/16 08:09:05;;;;;;;65.50;37.35;;;8.20;99.90;;;;;;5093265;28;20044;-76
2021/12/16 08:11:33;;;;;;;72.93;39.15;;;8.20;99.90;;;;;;5092338;28;20059;-76
2021/12/16 08:14:02;;;;;;;68.28;39.90;;;8.10;99.90;;;;;;5093070;28;20043;-76
2021/12/16 08:16:28;;;;;;;67.78;39.28;;;8.10;99.90;;;;;;5092728;28;20428;-76
2021/12/16 08:18:54;;;;;;;74.63;40.30;;;8.10;99.90;;;;;;5093157;28;20036;-75
2021/12/16 08:21:24;;;;;;;71.13;38.38;;;8.00;99.90;;;;;;5084352;28;20110;-75
2021/12/16 08:23:50;;;;;;;71.10;38.87;;;8.00;99.90;;;;;;5072753;28;20405;-75
2021/12/16 08:26:17;;;;;;;73.85;40.38;;;8.00;99.90;;;;;;5073303;28;20048;-76
2021/12/16 08:28:44;;;;;;;72.53;40.22;;;7.90;99.90;;;;;;5088307;28;20067;-80
2021/12/16 08:31:10;;;;;;;75.97;40.88;;;8.00;99.90;;;;;;5072219;28;20564;-76
2021/12/16 08:33:38;;;;;;;77.30;41.25;;;7.90;99.90;;;;;;5073090;28;20045;-76
2021/12/16 08:36:06;;;;;;;79.82;41.63;;;8.00;99.90;;;;;;5072445;28;20052;-76
2021/12/16 08:38:32;;;;;;;79.03;41.60;;;7.90;99.90;;;;;;5073413;28;20075;-75
2021/12/16 08:41:05;;;;;;;78.88;41.47;;;7.90;99.90;;;;;;5072346;28;20131;-74
2021/12/16 08:43:31;;;;;;;81.90;42.72;;;7.90;99.90;;;;;;5092697;28;20040;-76
2021/12/16 08:45:58;;;;;;;85.93;42.55;;;7.90;99.90;;;;;;5091804;28;20058;-76
2021/12/16 08:48:26;;;;;;;83.40;43.38;;;7.90;99.90;;;;;;5093445;28;20047;-75
2021/12/16 08:50:52;;;;;;;86.88;42.33;;;7.90;99.90;;;;;;5091473;28;20048;-75
2021/12/16 08:53:21;;;;;;;79.53;42.47;;;8.00;99.90;;;;;;5078104;28;20123;-76
2021/12/16 08:55:48;;;;;;;83.88;43.38;;;8.00;99.90;;;;;;5071528;28;20044;-72
2021/12/16 08:58:15;;;;;;;78.20;43.17;;;8.00;99.90;;;;;;5072150;28;20509;-76
2021/12/16 09:00:44;;;;;;;82.32;42.22;;;8.00;99.90;;;;;;5072784;28;20044;-76
2021/12/16 09:03:11;;;;;;;91.00;45.83;;;8.00;99.90;;;;;;5081961;28;20141;-76
2021/12/16 09:05:38;;;;;;;92.03;45.42;;;8.10;99.90;;;;;;5093081;28;20400;-76
2021/12/16 09:08:04;;;;;;;83.93;45.63;;;8.10;99.90;;;;;;5092120;28;20095;-76
2021/12/16 09:10:33;;;;;;;89.50;45.60;;;8.20;99.90;;;;;;5092805;28;20077;-76
2021/12/16 09:13:03;;;;;;;100.05;45.95;;;8.20;99.90;;;;;;5083192;28;20055;-74
2021/12/16 09:15:33;;;;;;;96.68;46.28;;;8.30;99.90;;;;;;5087424;28;20044;-76
2021/12/16 09:17:59;;;;;;;97.80;47.38;;;8.30;99.90;;;;;;5073932;28;20052;-75
2021/12/16 09:20:25;;;;;;;87.40;44.47;;;8.40;99.90;;;;;;5088532;28;20101;-74
2021/12/16 09:22:52;;;;;;;92.53;44.47;;;8.40;99.90;;;;;;5086837;28;20032;-77
2021/12/16 09:25:18;;;;;;;84.45;41.70;;;8.60;99.90;;;;;;5080151;28;20612;-77
2021/12/16 09:27:45;;;;;;;79.47;39.53;;;8.60;99.90;;;;;;5085723;28;20039;-76
2021/12/16 09:30:15;;;;;;;73.55;40.03;;;8.70;99.90;;;;;;5088487;28;20396;-77
2021/12/16 09:32:42;;;;;;;75.35;39.20;;;8.70;99.90;;;;;;5086667;28;20067;-77
2021/12/16 09:35:09;;;;;;;71.20;38.25;;;8.80;99.90;;;;;;5087627;28;20044;-74
2021/12/16 09:37:36;;;;;;;70.00;37.97;;;8.90;99.90;;;;;;5088436;28;20082;-77
2021/12/16 09:40:03;;;;;;;65.63;35.10;;;8.90;99.90;;;;;;5085411;28;20079;-76
2021/12/16 09:42:30;;;;;;;59.78;35.60;;;9.00;99.90;;;;;;5089446;28;20502;-73
2021/12/16 09:44:56;;;;;;;59.75;35.15;;;9.10;99.90;;;;;;5092559;28;20044;-78
2021/12/16 09:47:23;;;;;;;56.55;33.85;;;9.10;99.90;;;;;;5086830;28;20052;-77
2021/12/16 09:49:49;;;;;;;55.38;33.22;;;9.20;99.90;;;;;;5092100;28;20067;-75
2021/12/16 09:52:15;;;;;;;50.88;30.02;;;9.20;99.90;;;;;;5090720;28;20043;-77
2021/12/16 09:54:43;;;;;;;55.53;32.00;;;9.10;99.90;;;;;;5090817;28;20512;-77
2021/12/16 09:57:11;;;;;;;61.10;33.53;;;9.10;99.90;;;;;;5088954;28;20141;-73
2021/12/16 09:59:38;;;;;;;60.78;33.63;;;9.10;99.90;;;;;;5084121;28;20047;-77
2021/12/16 10:02:11;;;;;;;63.42;33.47;;;9.10;99.90;;;;;;5114837;27;20130;-77
2021/12/16 10:04:37;;;;;;;51.17;30.40;;;9.10;99.90;;;;;;5089299;28;20093;-77
2021/12/16 10:07:11;;;;;;;57.92;30.90;;;9.10;99.90;;;;;;5092534;28;20483;-76
2021/12/16 10:09:38;;;;;;;53.78;31.63;;;9.10;99.90;;;;;;5092400;28;20036;-76
2021/12/16 10:12:11;;;;;;;59.08;31.85;;;9.10;99.90;;;;;;5072043;28;20047;-77
2021/12/16 10:14:59;;;;;;;51.63;30.10;;;9.10;99.90;;;;;;5089854;28;20048;-75
2021/12/16 10:17:31;;;;;;;53.63;30.42;;;9.10;99.90;;;;;;5091801;28;20626;-76
2021/12/16 10:20:10;;;;;;;47.40;29.83;;;9.10;99.90;;;;;;5088952;28;20696;-76
2021/12/16 10:22:40;;;;;;;53.50;30.73;;;9.10;99.90;;;;;;5091551;28;20437;-76
2021/12/16 10:25:26;;;;;;;53.33;31.52;;;9.10;99.90;;;;;;5090153;28;20044;-77
2021/12/16 10:28:00;;;;;;;52.05;29.17;;;9.10;99.90;;;;;;5090879;28;20040;-77
2021/12/16 10:30:35;;;;;;;49.22;28.90;;;9.10;99.90;;;;;;5091797;28;20119;-76
2021/12/16 10:33:15;;;;;;;50.22;29.73;;;9.20;99.90;;;;;;5090219;28;20044;-76
2021/12/16 10:35:41;;;;;;;49.53;29.07;;;9.20;99.90;;;;;;5089298;28;20076;-75
2021/12/16 10:38:08;;;;;;;45.28;28.48;;;9.20;99.90;;;;;;5092135;28;20347;-77
2021/12/16 10:40:33;;;;;;;45.58;28.00;;;9.20;99.90;;;;;;5091199;28;20215;-77
2021/12/16 10:43:06;;;;;;;50.22;28.75;;;9.20;99.90;;;;;;5090236;28;20144;-73
2021/12/16 10:45:46;;;;;;;47.38;28.02;;;9.20;99.90;;;;;;5120089;27;20133;-77
2021/12/16 10:48:18;;;;;;;43.50;27.13;;;9.30;99.90;;;;;;5089410;28;20048;-77
2021/12/16 10:50:49;;;;;;;41.97;26.30;;;9.30;99.90;;;;;;5090431;28;20083;-77
2021/12/16 10:53:15;;;;;;;38.88;26.10;;;9.30;99.90;;;;;;5090052;28;20036;-77
2021/12/16 10:55:59;;;;;;;40.65;25.98;;;9.30;99.90;;;;;;5091841;28;20047;-77
2021/12/16 10:58:46;;;;;;;41.50;25.55;;;9.30;99.90;;;;;;5090698;28;20039;-74
2021/12/16 11:01:41;;;;;;;39.10;24.27;;;9.30;99.90;;;;;;5083894;28;20050;-77
2021/12/16 11:04:23;;;;;;;38.00;25.48;;;9.30;99.90;;;;;;5086008;28;20044;-76
2021/12/16 11:07:14;;;;;;;42.95;27.05;;;9.30;99.90;;;;;;5090973;28;20048;-76
2021/12/16 11:09:42;;;;;;;38.95;25.88;;;9.30;99.90;;;;;;5088742;28;20090;-77
2021/12/16 11:12:16;;;;;;;39.30;26.30;;;9.30;99.90;;;;;;5090518;28;20431;-76
2021/12/16 11:14:46;;;;;;;38.95;26.17;;;9.30;99.90;;;;;;5090775;28;20075;-76
2021/12/16 11:17:15;;;;;;;43.15;26.90;;;9.30;99.90;;;;;;5091093;28;20074;-77
2021/12/16 11:19:48;;;;;;;44.20;26.48;;;9.30;99.90;;;;;;5085715;28;20517;-73
2021/12/16 11:22:18;;;;;;;42.10;26.63;;;9.30;99.90;;;;;;5090227;28;20051;-77
2021/12/16 11:24:45;;;;;;;41.58;27.27;;;9.20;99.90;;;;;;5088062;28;20043;-76
2021/12/16 11:27:28;;;;;;;40.15;27.00;;;9.20;99.90;;;;;;5089849;28;20784;-77
2021/12/16 11:29:55;;;;;;;42.97;26.60;;;9.20;99.90;;;;;;5090920;28;20044;-74
2021/12/16 11:32:51;;;;;;;43.53;27.10;;;9.20;99.90;;;;;;5089928;28;20100;-77
2021/12/16 11:35:25;;;;;;;44.03;27.88;;;9.20;99.90;;;;;;5080592;28;20079;-77
2021/12/16 11:37:51;;;;;;;44.70;28.20;;;9.20;99.90;;;;;;5090276;28;20165;-76
2021/12/16 11:40:19;;;;;;;45.53;28.05;;;9.20;99.90;;;;;;5090575;28;20489;-76
2021/12/16 11:43:02;;;;;;;48.72;29.08;;;9.20;99.90;;;;;;5090591;28;20051;-76
2021/12/16 11:45:39;;;;;;;46.10;28.13;;;9.20;99.90;;;;;;5086861;28;20123;-77
2021/12/16 11:48:07;;;;;;;46.38;28.77;;;9.20;99.90;;;;;;5083370;28;20072;-76
2021/12/16 11:50:41;;;;;;;47.53;28.80;;;9.10;99.90;;;;;;5085920;28;20048;-77
2021/12/16 11:53:10;;;;;;;46.72;27.20;;;9.20;99.90;;;;;;5087930;28;20039;-77
2021/12/16 11:55:38;;;;;;;45.15;28.15;;;9.10;99.90;;;;;;5088765;28;20132;-77
2021/12/16 11:58:06;;;;;;;50.50;28.33;;;9.20;99.90;;;;;;5090504;28;20047;-76
2021/12/16 12:00:38;;;;;;;49.25;27.92;;;9.20;99.90;;;;;;5090528;28;20047;-77
2021/12/16 12:03:11;;;;;;;51.22;27.20;;;9.20;99.90;;;;;;5086547;28;20508;-75
2021/12/16 12:05:46;;;;;;;47.75;28.02;;;9.20;99.90;;;;;;5088708;28;20047;-76
2021/12/16 12:08:20;;;;;;;42.42;26.25;;;9.20;99.90;;;;;;5088978;28;20044;-77
2021/12/16 12:11:06;;;;;;;41.08;26.60;;;9.30;99.90;;;;;;5090079;28;20122;-77
2021/12/16 12:13:36;;;;;;;47.40;27.92;;;9.30;99.90;;;;;;5090068;28;20068;-77
2021/12/16 12:16:07;;;;;;;45.22;28.27;;;9.30;99.90;;;;;;5088066;28;20048;-77
2021/12/16 12:18:40;;;;;;;44.47;26.25;;;9.30;99.90;;;;;;5087227;28;20492;-73
2021/12/16 12:21:28;;;;;;;43.90;26.05;;;9.40;99.90;;;;;;5088204;28;20363;-76
2021/12/16 12:24:08;;;;;;;41.47;26.05;;;9.40;99.90;;;;;;5089033;28;20040;-77
2021/12/16 12:26:38;;;;;;;42.22;26.33;;;9.40;99.90;;;;;;5089571;28;20123;-77
2021/12/16 12:29:08;;;;;;;49.80;27.33;;;9.40;99.90;;;;;;5087838;28;20154;-76
2021/12/16 12:31:37;;;;;;;47.10;27.85;;;9.40;99.90;;;;;;5089701;28;20070;-75
2021/12/16 12:34:03;;;;;;;47.08;26.27;;;9.40;99.90;;;;;;5086775;28;20040;-77
2021/12/16 12:36:29;;;;;;;42.80;26.27;;;9.50;99.90;;;;;;5089333;28;20044;-77
2021/12/16 12:38:57;;;;;;;46.63;26.77;;;9.40;99.90;;;;;;5089726;28;20055;-75
2021/12/16 12:41:23;;;;;;;42.35;26.23;;;9.50;99.90;;;;;;5089232;28;20044;-77
2021/12/16 12:43:48;;;;;;;44.03;26.67;;;9.40;99.90;;;;;;5088540;28;20109;-77
2021/12/16 12:46:15;;;;;;;46.90;26.27;;;9.40;99.90;;;;;;5083941;28;20052;-75
2021/12/16 12:48:42;;;;;;;49.50;27.92;;;9.40;99.90;;;;;;5089693;28;20073;-77
2021/12/16 12:51:08;;;;;;;43.17;25.50;;;9.50;99.90;;;;;;5089823;28;20044;-77
2021/12/16 12:53:49;;;;;;;47.40;26.60;;;9.40;99.90;;;;;;5088877;28;20078;-74
2021/12/16 12:56:15;;;;;;;;;;;9.40;99.90;;;;;;5088829;28;20400;-77
2021/12/16 12:58:51;;;;;;;48.05;26.58;;;9.40;99.90;;;;;;5089101;28;19924;-75
2021/12/16 13:01:17;;;;;;;49.47;27.80;;;9.40;99.90;;;;;;5089293;28;20093;-77
2021/12/16 13:03:43;;;;;;;52.80;27.52;;;9.40;99.90;;;;;;5089102;28;20036;-76
2021/12/16 13:06:13;;;;;;;48.28;25.75;;;9.40;99.90;;;;;;5089206;28;20114;-77
2021/12/16 13:08:49;;;;;;;47.55;25.73;;;9.40;99.90;;;;;;5089866;28;20040;-77
2021/12/16 13:11:29;;;;;;;44.95;24.20;;;9.40;99.90;;;;;;5088416;28;20047;-77
2021/12/16 13:14:07;;;;;;;47.13;26.70;;;9.40;99.90;;;;;;5087908;28;20110;-75
2021/12/16 13:23:27;;;;;;;50.40;27.52;;;9.40;99.90;;;;;;5089267;28;20056;-78
2021/12/16 13:28:37;;;;;;;46.53;26.50;;;9.40;99.90;;;;;;5088820;28;20052;-77
2021/12/16 13:31:23;;;;;;;48.35;26.58;;;9.40;99.90;;;;;;5086769;28;20040;-77
2021/12/16 13:33:55;;;;;;;52.78;27.67;;;9.30;99.90;;;;;;5088141;28;20040;-77
2021/12/16 13:36:42;;;;;;;54.38;28.23;;;9.30;99.90;;;;;;5089033;28;20089;-78
2021/12/16 13:39:20;;;;;;;54.08;26.85;;;9.30;99.90;;;;;;5114932;28;20266;-77
2021/12/16 13:42:15;;;;;;;51.35;25.88;;;9.30;99.90;;;;;;5088103;28;20441;-78
2021/12/16 13:44:46;;;;;;;56.72;27.52;;;9.30;99.90;;;;;;5087411;28;20052;-77
2021/12/16 13:47:36;;;;;;;62.58;29.10;;;9.30;99.90;;;;;;5088731;28;20408;-77
2021/12/16 14:16:00;;;;;;;62.70;26.33;;;9.10;99.90;;;;;;5088584;28;20129;-77
2021/12/16 14:24:56;;;;;;;52.65;24.58;;;9.10;99.90;;;;;;5038131;28;20049;-77
2021/12/16 14:39:50;;;;;;;54.45;24.77;;;9.10;99.90;;;;;;5090080;28;20052;-78
2021/12/16 14:45:30;;;;;;;58.97;25.60;;;9.10;99.90;;;;;;5090514;28;20056;-78
2021/12/16 14:50:45;;;;;;;55.75;25.55;;;9.00;99.90;;;;;;5092970;28;20058;-79
2021/12/16 14:53:20;;;;;;;;;;;9.10;99.90;;;;;;5094613;28;20527;-76
2021/12/16 14:55:47;;;;;;;56.35;25.58;;;9.00;99.90;;;;;;5092647;28;19920;-78
2021/12/16 14:58:14;;;;;;;59.78;27.38;;;9.10;99.90;;;;;;5094495;28;20040;-78
2021/12/16 15:00:49;;;;;;;65.88;28.30;;;9.00;99.90;;;;;;5094230;28;20113;-78
2021/12/16 15:03:30;;;;;;;63.70;28.10;;;9.00;99.90;;;;;;5094551;28;20149;-78
2021/12/16 15:06:02;;;;;;;61.88;28.25;;;9.00;99.90;;;;;;5093805;28;20048;-78
2021/12/16 15:08:44;;;;;;;71.55;27.65;;;9.00;99.90;;;;;;5091520;28;20040;-78
2021/12/16 15:11:16;;;;;;;64.78;28.42;;;9.00;99.90;;;;;;5090759;28;20040;-78
2021/12/16 15:13:52;;;;;;;65.82;28.40;;;9.00;99.90;;;;;;5113074;27;20076;-78
2021/12/16 15:16:49;;;;;;;66.80;28.52;;;9.00;99.90;;;;;;5092926;28;20055;-78
2021/12/16 15:39:10;;;;;;;85.97;32.53;;;8.90;99.90;;;;;;5093320;28;20692;-78
2021/12/16 15:44:19;;;;;;;81.55;31.23;;;8.80;99.90;;;;;;5092564;28;20040;-78
2021/12/16 15:46:47;;;;;;;81.13;32.60;;;8.80;99.90;;;;;;5090244;28;20545;-77
2021/12/16 15:49:13;;;;;;;78.57;32.08;;;8.80;99.90;;;;;;5092059;28;20043;-78
2021/12/16 15:51:39;;;;;;;79.80;31.15;;;8.80;99.90;;;;;;5092937;28;20049;-78
2021/12/16 15:54:06;;;;;;;88.65;31.85;;;8.80;99.90;;;;;;5093544;28;20040;-78
2021/12/16 15:56:36;;;;;;;91.63;33.72;;;8.80;99.90;;;;;;5093003;28;20105;-77
2021/12/16 15:59:12;;;;;;;104.00;33.72;;;8.80;99.90;;;;;;5093631;28;20488;-78
2021/12/16 16:01:44;;;;;;;82.72;32.42;;;8.80;99.90;;;;;;5093074;28;20040;-78
2021/12/16 16:04:28;;;;;;;87.78;33.55;;;8.80;99.90;;;;;;5093665;28;20040;-78
2021/12/16 16:07:02;;;;;;;101.68;33.92;;;8.80;99.90;;;;;;5092934;28;20059;-79
2021/12/16 16:09:35;;;;;;;99.97;34.63;;;8.70;99.90;;;;;;5096736;28;20062;-79
2021/12/16 16:12:02;;;;;;;94.30;34.25;;;8.70;99.90;;;;;;5094339;28;20085;-77
2021/12/16 16:14:31;;;;;;;99.15;34.10;;;8.70;99.90;;;;;;5089188;28;20038;-79
2021/12/16 16:16:59;;;;;;;96.40;35.20;;;8.70;99.90;;;;;;5097189;28;20058;-79
2021/12/16 16:19:31;;;;;;;93.88;34.22;;;8.70;99.90;;;;;;5092742;28;20079;-77
2021/12/16 16:22:03;;;;;;;115.60;36.13;;;8.70;99.90;;;;;;5094292;28;20086;-78
2021/12/16 16:24:35;;;;;;;137.95;35.60;;;8.70;99.90;;;;;;5092024;28;20497;-79
2021/12/16 16:27:06;;;;;;;108.03;33.08;;;8.70;99.90;;;;;;5092016;28;20510;-78
2021/12/16 16:29:34;;;;;;;113.97;34.28;;;8.70;99.90;;;;;;5090769;28;20046;-73
2021/12/16 16:32:00;;;;;;;93.15;30.85;;;8.60;99.90;;;;;;5093234;28;20072;-79
2021/12/16 16:34:38;;;;;;;93.00;32.20;;;8.60;99.90;;;;;;5094442;28;20048;-78
2021/12/16 16:37:07;;;;;;;102.18;30.75;;;8.50;99.90;;;;;;5086750;28;20109;-78
2021/12/16 16:39:38;;;;;;;69.68;28.75;;;8.50;99.90;;;;;;5095892;28;20048;-73